sensor_id;sensor_type;location;lat;lon;timestamp;P1;durP1;ratioP1;P2;durP2;ratioP2
30215;SDS011;17028;47.642;8.070;2022-09-28T00:04:51;7.53;;;1.33;;
30215;SDS011;17028;47.642;8.070;2022-09-28T00:09:52;6.68;;;1.27;;
30215;SDS011;17028;47.642;8.070;2022-09-28T00:14:54;6.40;;;1.23;;
30215;SDS011;17028;47.642;8.070;2022-09-28T00:19:55;7.25;;;1.30;;
30215;SDS011;17028;47.642;8.070;2022-09-28T00:24:57;5.97;;;1.30;;
30215;SDS011;17028;47.642;8.070;2022-09-28T00:29:58;6.50;;;1.50;;
30215;SDS011;17028;47.642;8.070;2022-09-28T00:34:59;4.32;;;1.45;;
30215;SDS011;17028;47.642;8.070;2022-09-28T00:40:00;4.40;;;1.08;;
30215;SDS011;17028;47.642;8.070;2022-09-28T00:45:01;4.43;;;1.00;;
30215;SDS011;17028;47.642;8.070;2022-09-28T00:50:07;4.13;;;1.17;;
30215;SDS011;17028;47.642;8.070;2022-09-28T00:55:16;3.22;;;1.20;;
30215;SDS011;17028;47.642;8.070;2022-09-28T01:00:21;5.38;;;0.98;;
30215;SDS011;17028;47.642;8.070;2022-09-28T01:05:22;5.65;;;1.15;;
30215;SDS011;17028;47.642;8.070;2022-09-28T01:10:24;2.22;;;1.00;;
30215;SDS011;17028;47.642;8.070;2022-09-28T01:15:28;1.95;;;0.60;;
30215;SDS011;17028;47.642;8.070;2022-09-28T01:36:06;4.63;;;0.95;;
30215;SDS011;17028;47.642;8.070;2022-09-28T01:41:12;2.08;;;0.95;;
30215;SDS011;17028;47.642;8.070;2022-09-28T01:46:19;4.25;;;0.98;;
30215;SDS011;17028;47.642;8.070;2022-09-28T01:51:34;2.28;;;0.70;;
30215;SDS011;17028;47.642;8.070;2022-09-28T01:56:48;4.18;;;0.95;;
30215;SDS011;17028;47.642;8.070;2022-09-28T02:01:56;1.95;;;0.82;;
30215;SDS011;17028;47.642;8.070;2022-09-28T02:07:02;2.78;;;1.08;;
30215;SDS011;17028;47.642;8.070;2022-09-28T02:12:16;1.30;;;0.65;;
30215;SDS011;17028;47.642;8.070;2022-09-28T02:17:22;2.10;;;0.60;;
30215;SDS011;17028;47.642;8.070;2022-09-28T02:22:24;1.40;;;0.70;;
30215;SDS011;17028;47.642;8.070;2022-09-28T02:27:33;1.80;;;0.90;;
30215;SDS011;17028;47.642;8.070;2022-09-28T02:32:46;0.70;;;0.40;;
30215;SDS011;17028;47.642;8.070;2022-09-28T02:37:50;0.98;;;0.50;;
30215;SDS011;17028;47.642;8.070;2022-09-28T03:10:15;1.90;;;0.47;;
30215;SDS011;17028;47.642;8.070;2022-09-28T03:15:24;1.30;;;0.47;;
30215;SDS011;17028;47.642;8.070;2022-09-28T03:20:29;2.60;;;0.55;;
30215;SDS011;17028;47.642;8.070;2022-09-28T03:25:31;1.77;;;0.60;;
30215;SDS011;17028;47.642;8.070;2022-09-28T03:30:32;1.40;;;0.50;;
30215;SDS011;17028;47.642;8.070;2022-09-28T03:35:33;0.80;;;0.40;;
30215;SDS011;17028;47.642;8.070;2022-09-28T03:40:34;1.83;;;0.50;;
30215;SDS011;17028;47.642;8.070;2022-09-28T03:45:35;0.77;;;0.40;;
30215;SDS011;17028;47.642;8.070;2022-09-28T03:50:36;0.93;;;0.50;;
30215;SDS011;17028;47.642;8.070;2022-09-28T03:55:37;1.45;;;0.40;;
30215;SDS011;17028;47.642;8.070;2022-09-28T04:00:38;0.95;;;0.40;;
30215;SDS011;17028;47.642;8.070;2022-09-28T04:05:49;1.38;;;0.40;;
30215;SDS011;17028;47.642;8.070;2022-09-28T04:10:54;1.10;;;0.50;;
30215;SDS011;17028;47.642;8.070;2022-09-28T04:15:57;0.63;;;0.40;;
30215;SDS011;17028;47.642;8.070;2022-09-28T04:31:18;0.50;;;0.40;;
30215;SDS011;17028;47.642;8.070;2022-09-28T04:36:22;1.33;;;0.40;;
30215;SDS011;17028;47.642;8.070;2022-09-28T04:41:24;0.30;;;0.30;;
30215;SDS011;17028;47.642;8.070;2022-09-28T04:46:26;0.28;;;0.28;;
30215;SDS011;17028;47.642;8.070;2022-09-28T04:51:47;0.60;;;0.40;;
30215;SDS011;17028;47.642;8.070;2022-09-28T04:56:48;1.83;;;0.30;;
30215;SDS011;17028;47.642;8.070;2022-09-28T05:01:49;1.30;;;0.30;;
30215;SDS011;17028;47.642;8.070;2022-09-28T05:07:02;1.88;;;0.30;;
30215;SDS011;17028;47.642;8.070;2022-09-28T05:12:03;1.40;;;0.20;;
30215;SDS011;17028;47.642;8.070;2022-09-28T05:17:04;0.10;;;0.10;;
30215;SDS011;17028;47.642;8.070;2022-09-28T05:22:19;0.47;;;0.20;;
30215;SDS011;17028;47.642;8.070;2022-09-28T05:27:20;0.90;;;0.10;;
30215;SDS011;17028;47.642;8.070;2022-09-28T05:32:32;0.15;;;0.15;;
30215;SDS011;17028;47.642;8.070;2022-09-28T05:37:45;0.40;;;0.40;;
30215;SDS011;17028;47.642;8.070;2022-09-28T05:42:46;0.75;;;0.03;;
30215;SDS011;17028;47.642;8.070;2022-09-28T05:47:47;0.00;;;0.00;;
30215;SDS011;17028;47.642;8.070;2022-09-28T05:52:56;0.45;;;0.10;;
30215;SDS011;17028;47.642;8.070;2022-09-28T05:58:01;0.00;;;0.00;;
30215;SDS011;17028;47.642;8.070;2022-09-28T06:03:06;0.00;;;0.00;;
30215;SDS011;17028;47.642;8.070;2022-09-28T06:08:10;0.52;;;0.20;;
30215;SDS011;17028;47.642;8.070;2022-09-28T06:13:14;0.30;;;0.10;;
30215;SDS011;17028;47.642;8.070;2022-09-28T06:18:15;0.17;;;0.15;;
30215;SDS011;17028;47.642;8.070;2022-09-28T06:23:35;0.15;;;0.10;;
30215;SDS011;17028;47.642;8.070;2022-09-28T06:28:36;0.20;;;0.20;;
30215;SDS011;17028;47.642;8.070;2022-09-28T06:33:37;0.10;;;0.10;;
30215;SDS011;17028;47.642;8.070;2022-09-28T06:38:38;0.82;;;0.20;;
30215;SDS011;17028;47.642;8.070;2022-09-28T06:43:39;0.20;;;0.20;;
30215;SDS011;17028;47.642;8.070;2022-09-28T06:48:47;0.20;;;0.17;;
30215;SDS011;17028;47.642;8.070;2022-09-28T06:53:54;0.40;;;0.20;;
30215;SDS011;17028;47.642;8.070;2022-09-28T06:59:16;0.10;;;0.10;;
30215;SDS011;17028;47.642;8.070;2022-09-28T07:04:17;0.10;;;0.10;;
30215;SDS011;17028;47.642;8.070;2022-09-28T07:09:36;0.10;;;0.10;;
30215;SDS011;17028;47.642;8.070;2022-09-28T07:14:44;0.30;;;0.15;;
30215;SDS011;17028;47.642;8.070;2022-09-28T07:19:46;0.20;;;0.20;;
30215;SDS011;17028;47.642;8.070;2022-09-28T07:24:52;0.17;;;0.15;;
30215;SDS011;17028;47.642;8.070;2022-09-28T07:30:11;0.90;;;0.20;;
30215;SDS011;17028;47.642;8.070;2022-09-28T07:35:28;0.25;;;0.15;;
30215;SDS011;17028;47.642;8.070;2022-09-28T07:40:32;0.10;;;0.10;;
30215;SDS011;17028;47.642;8.070;2022-09-28T07:45:54;0.73;;;0.20;;
30215;SDS011;17028;47.642;8.070;2022-09-28T07:50:55;0.32;;;0.10;;
30215;SDS011;17028;47.642;8.070;2022-09-28T07:56:28;0.40;;;0.10;;
30215;SDS011;17028;47.642;8.070;2022-09-28T08:01:47;1.08;;;0.20;;
30215;SDS011;17028;47.642;8.070;2022-09-28T08:06:51;1.38;;;0.50;;
30215;SDS011;17028;47.642;8.070;2022-09-28T08:11:52;0.52;;;0.20;;
30215;SDS011;17028;47.642;8.070;2022-09-28T08:17:13;1.70;;;0.30;;
30215;SDS011;17028;47.642;8.070;2022-09-28T08:22:19;2.38;;;0.80;;
30215;SDS011;17028;47.642;8.070;2022-09-28T08:27:23;2.20;;;0.50;;
30215;SDS011;17028;47.642;8.070;2022-09-28T08:32:24;1.55;;;0.60;;
30215;SDS011;17028;47.642;8.070;2022-09-28T08:37:51;1.83;;;0.45;;
30215;SDS011;17028;47.642;8.070;2022-09-28T08:43:28;0.73;;;0.40;;
30215;SDS011;17028;47.642;8.070;2022-09-28T08:49:02;1.67;;;0.40;;
30215;SDS011;17028;47.642;8.070;2022-09-28T08:54:47;1.55;;;0.50;;
30215;SDS011;17028;47.642;8.070;2022-09-28T09:00:05;2.35;;;0.40;;
30215;SDS011;17028;47.642;8.070;2022-09-28T09:05:11;1.20;;;0.25;;
30215;SDS011;17028;47.642;8.070;2022-09-28T09:10:40;2.10;;;0.32;;
30215;SDS011;17028;47.642;8.070;2022-09-28T09:21:58;0.90;;;0.30;;
30215;SDS011;17028;47.642;8.070;2022-09-28T09:27:19;0.73;;;0.30;;
30215;SDS011;17028;47.642;8.070;2022-09-28T09:44:09;0.30;;;0.28;;
30215;SDS011;17028;47.642;8.070;2022-09-28T09:49:23;0.73;;;0.40;;
30215;SDS011;17028;47.642;8.070;2022-09-28T09:54:36;1.02;;;0.40;;
30215;SDS011;17028;47.642;8.070;2022-09-28T09:59:45;1.20;;;0.40;;
30215;SDS011;17028;47.642;8.070;2022-09-28T10:05:13;1.33;;;0.47;;
30215;SDS011;17028;47.642;8.070;2022-09-28T10:10:33;0.30;;;0.30;;
30215;SDS011;17028;47.642;8.070;2022-09-28T10:15:42;0.88;;;0.40;;
30215;SDS011;17028;47.642;8.070;2022-09-28T10:20:56;1.83;;;0.50;;
30215;SDS011;17028;47.642;8.070;2022-09-28T10:26:18;2.63;;;0.50;;
30215;SDS011;17028;47.642;8.070;2022-09-28T10:31:40;0.28;;;0.22;;
30215;SDS011;17028;47.642;8.070;2022-09-28T10:37:02;0.60;;;0.30;;
30215;SDS011;17028;47.642;8.070;2022-09-28T10:42:30;1.47;;;0.47;;
30215;SDS011;17028;47.642;8.070;2022-09-28T10:47:34;2.88;;;0.60;;
30215;SDS011;17028;47.642;8.070;2022-09-28T10:52:38;0.93;;;0.30;;
30215;SDS011;17028;47.642;8.070;2022-09-28T10:57:42;1.35;;;0.40;;
30215;SDS011;17028;47.642;8.070;2022-09-28T11:02:44;0.95;;;0.30;;
30215;SDS011;17028;47.642;8.070;2022-09-28T11:07:56;3.95;;;0.30;;
30215;SDS011;17028;47.642;8.070;2022-09-28T11:13:08;1.52;;;0.35;;
30215;SDS011;17028;47.642;8.070;2022-09-28T11:23:28;2.47;;;0.30;;
30215;SDS011;17028;47.642;8.070;2022-09-28T11:28:35;0.73;;;0.30;;
30215;SDS011;17028;47.642;8.070;2022-09-28T11:33:45;0.88;;;0.30;;
30215;SDS011;17028;47.642;8.070;2022-09-28T11:39:25;0.30;;;0.20;;
30215;SDS011;17028;47.642;8.070;2022-09-28T11:44:37;0.90;;;0.30;;
30215;SDS011;17028;47.642;8.070;2022-09-28T12:00:36;1.60;;;0.50;;
30215;SDS011;17028;47.642;8.070;2022-09-28T12:05:49;0.32;;;0.30;;
30215;SDS011;17028;47.642;8.070;2022-09-28T12:17:19;1.08;;;0.47;;
30215;SDS011;17028;47.642;8.070;2022-09-28T12:22:11;1.70;;;0.80;;
30215;SDS011;17028;47.642;8.070;2022-09-28T12:27:36;2.50;;;0.95;;
30215;SDS011;17028;47.642;8.070;2022-09-28T12:32:43;0.95;;;0.30;;
30215;SDS011;17028;47.642;8.070;2022-09-28T12:54:42;1.50;;;0.57;;
30215;SDS011;17028;47.642;8.070;2022-09-28T13:10:30;0.40;;;0.30;;
30215;SDS011;17028;47.642;8.070;2022-09-28T13:15:41;0.52;;;0.32;;
30215;SDS011;17028;47.642;8.070;2022-09-28T13:26:42;1.10;;;0.20;;
30215;SDS011;17028;47.642;8.070;2022-09-28T13:31:49;5.57;;;0.50;;
30215;SDS011;17028;47.642;8.070;2022-09-28T13:52:56;0.30;;;0.22;;
30215;SDS011;17028;47.642;8.070;2022-09-28T13:58:22;0.30;;;0.30;;
30215;SDS011;17028;47.642;8.070;2022-09-28T14:03:41;0.95;;;0.30;;
30215;SDS011;17028;47.642;8.070;2022-09-28T14:19:18;0.57;;;0.20;;
30215;SDS011;17028;47.642;8.070;2022-09-28T14:29:44;0.43;;;0.30;;
30215;SDS011;17028;47.642;8.070;2022-09-28T14:34:58;1.52;;;0.60;;
30215;SDS011;17028;47.642;8.070;2022-09-28T14:40:15;1.17;;;0.80;;
30215;SDS011;17028;47.642;8.070;2022-09-28T14:45:43;2.42;;;1.30;;
30215;SDS011;17028;47.642;8.070;2022-09-28T14:50:45;1.40;;;0.90;;
30215;SDS011;17028;47.642;8.070;2022-09-28T14:55:52;1.95;;;1.20;;
30215;SDS011;17028;47.642;8.070;2022-09-28T15:00:59;4.65;;;2.75;;
30215;SDS011;17028;47.642;8.070;2022-09-28T15:06:05;9.68;;;4.93;;
30215;SDS011;17028;47.642;8.070;2022-09-28T15:11:09;4.68;;;2.83;;
30215;SDS011;17028;47.642;8.070;2022-09-28T15:16:15;1.63;;;1.00;;
30215;SDS011;17028;47.642;8.070;2022-09-28T15:21:17;10.07;;;6.20;;
30215;SDS011;17028;47.642;8.070;2022-09-28T15:26:25;4.28;;;2.72;;
30215;SDS011;17028;47.642;8.070;2022-09-28T15:31:33;4.35;;;2.53;;
30215;SDS011;17028;47.642;8.070;2022-09-28T15:36:39;2.72;;;1.67;;
30215;SDS011;17028;47.642;8.070;2022-09-28T15:41:41;8.48;;;4.63;;
30215;SDS011;17028;47.642;8.070;2022-09-28T15:46:44;9.07;;;5.35;;
30215;SDS011;17028;47.642;8.070;2022-09-28T15:51:48;5.10;;;3.00;;
30215;SDS011;17028;47.642;8.070;2022-09-28T15:56:56;4.07;;;2.38;;
30215;SDS011;17028;47.642;8.070;2022-09-28T16:12:10;1.80;;;1.10;;
30215;SDS011;17028;47.642;8.070;2022-09-28T16:17:14;2.35;;;0.80;;
30215;SDS011;17028;47.642;8.070;2022-09-28T16:22:37;1.30;;;0.80;;
30215;SDS011;17028;47.642;8.070;2022-09-28T16:27:42;1.15;;;0.80;;
30215;SDS011;17028;47.642;8.070;2022-09-28T16:43:14;12.25;;;6.07;;
30215;SDS011;17028;47.642;8.070;2022-09-28T16:48:19;9.48;;;4.90;;
30215;SDS011;17028;47.642;8.070;2022-09-28T16:53:21;5.78;;;3.33;;
30215;SDS011;17028;47.642;8.070;2022-09-28T16:58:41;4.88;;;2.40;;
30215;SDS011;17028;47.642;8.070;2022-09-28T17:03:42;3.22;;;1.67;;
30215;SDS011;17028;47.642;8.070;2022-09-28T17:08:46;2.90;;;1.30;;
30215;SDS011;17028;47.642;8.070;2022-09-28T17:13:47;1.90;;;1.08;;
30215;SDS011;17028;47.642;8.070;2022-09-28T17:18:48;1.48;;;0.80;;
30215;SDS011;17028;47.642;8.070;2022-09-28T17:23:49;9.82;;;6.50;;
30215;SDS011;17028;47.642;8.070;2022-09-28T17:28:50;5.45;;;3.78;;
30215;SDS011;17028;47.642;8.070;2022-09-28T17:33:53;5.45;;;3.05;;
30215;SDS011;17028;47.642;8.070;2022-09-28T17:38:54;4.53;;;2.10;;
30215;SDS011;17028;47.642;8.070;2022-09-28T17:43:56;2.08;;;1.10;;
30215;SDS011;17028;47.642;8.070;2022-09-28T17:48:58;1.75;;;1.00;;
30215;SDS011;17028;47.642;8.070;2022-09-28T17:54:01;1.20;;;0.70;;
30215;SDS011;17028;47.642;8.070;2022-09-28T17:59:03;2.05;;;1.10;;
30215;SDS011;17028;47.642;8.070;2022-09-28T18:04:10;1.98;;;0.95;;
30215;SDS011;17028;47.642;8.070;2022-09-28T18:09:13;1.60;;;0.90;;
30215;SDS011;17028;47.642;8.070;2022-09-28T18:14:15;2.45;;;1.17;;
30215;SDS011;17028;47.642;8.070;2022-09-28T18:19:16;2.83;;;1.17;;
30215;SDS011;17028;47.642;8.070;2022-09-28T18:24:17;2.13;;;1.20;;
30215;SDS011;17028;47.642;8.070;2022-09-28T18:29:18;1.92;;;1.20;;
30215;SDS011;17028;47.642;8.070;2022-09-28T18:34:19;2.30;;;1.20;;
30215;SDS011;17028;47.642;8.070;2022-09-28T18:39:20;1.88;;;1.00;;
30215;SDS011;17028;47.642;8.070;2022-09-28T18:44:21;16.45;;;8.32;;
30215;SDS011;17028;47.642;8.070;2022-09-28T18:49:23;11.25;;;5.70;;
30215;SDS011;17028;47.642;8.070;2022-09-28T18:54:24;6.07;;;3.50;;
30215;SDS011;17028;47.642;8.070;2022-09-28T18:59:26;4.03;;;2.25;;
30215;SDS011;17028;47.642;8.070;2022-09-28T19:04:27;4.28;;;2.30;;
30215;SDS011;17028;47.642;8.070;2022-09-28T19:09:29;4.75;;;2.90;;
30215;SDS011;17028;47.642;8.070;2022-09-28T19:14:30;4.65;;;2.50;;
30215;SDS011;17028;47.642;8.070;2022-09-28T19:19:31;4.45;;;2.88;;
30215;SDS011;17028;47.642;8.070;2022-09-28T19:24:32;4.60;;;3.40;;
30215;SDS011;17028;47.642;8.070;2022-09-28T19:29:33;4.22;;;3.17;;
30215;SDS011;17028;47.642;8.070;2022-09-28T19:34:34;3.78;;;2.42;;
30215;SDS011;17028;47.642;8.070;2022-09-28T19:39:35;3.25;;;2.10;;
30215;SDS011;17028;47.642;8.070;2022-09-28T19:44:36;4.80;;;3.00;;
30215;SDS011;17028;47.642;8.070;2022-09-28T19:49:39;5.93;;;3.53;;
30215;SDS011;17028;47.642;8.070;2022-09-28T19:54:43;3.58;;;2.40;;
30215;SDS011;17028;47.642;8.070;2022-09-28T19:59:54;5.50;;;3.33;;
30215;SDS011;17028;47.642;8.070;2022-09-28T20:04:55;5.53;;;3.70;;
30215;SDS011;17028;47.642;8.070;2022-09-28T20:09:56;5.60;;;3.50;;
30215;SDS011;17028;47.642;8.070;2022-09-28T20:14:57;5.38;;;3.40;;
30215;SDS011;17028;47.642;8.070;2022-09-28T20:19:58;4.75;;;2.97;;
30215;SDS011;17028;47.642;8.070;2022-09-28T20:24:59;3.00;;;2.05;;
30215;SDS011;17028;47.642;8.070;2022-09-28T20:30:02;3.40;;;2.00;;
30215;SDS011;17028;47.642;8.070;2022-09-28T20:35:04;4.28;;;3.15;;
30215;SDS011;17028;47.642;8.070;2022-09-28T20:40:06;3.90;;;2.90;;
30215;SDS011;17028;47.642;8.070;2022-09-28T20:45:07;5.13;;;3.25;;
30215;SDS011;17028;47.642;8.070;2022-09-28T20:50:08;4.60;;;2.70;;
30215;SDS011;17028;47.642;8.070;2022-09-28T20:55:10;2.92;;;1.90;;
30215;SDS011;17028;47.642;8.070;2022-09-28T21:00:12;2.55;;;1.65;;
30215;SDS011;17028;47.642;8.070;2022-09-28T21:05:13;2.50;;;1.35;;
30215;SDS011;17028;47.642;8.070;2022-09-28T21:10:14;1.80;;;1.20;;
30215;SDS011;17028;47.642;8.070;2022-09-28T21:15:16;3.63;;;2.25;;
30215;SDS011;17028;47.642;8.070;2022-09-28T21:20:17;3.92;;;2.60;;
30215;SDS011;17028;47.642;8.070;2022-09-28T21:25:18;3.05;;;1.77;;
30215;SDS011;17028;47.642;8.070;2022-09-28T21:30:19;2.95;;;1.92;;
30215;SDS011;17028;47.642;8.070;2022-09-28T21:35:20;3.88;;;2.65;;
30215;SDS011;17028;47.642;8.070;2022-09-28T21:40:21;3.08;;;2.20;;
30215;SDS011;17028;47.642;8.070;2022-09-28T21:45:22;4.00;;;2.47;;
30215;SDS011;17028;47.642;8.070;2022-09-28T21:50:25;5.68;;;3.85;;
30215;SDS011;17028;47.642;8.070;2022-09-28T21:55:26;5.28;;;3.28;;
30215;SDS011;17028;47.642;8.070;2022-09-28T22:00:27;4.07;;;2.83;;
30215;SDS011;17028;47.642;8.070;2022-09-28T22:05:28;4.25;;;3.10;;
30215;SDS011;17028;47.642;8.070;2022-09-28T22:10:29;4.65;;;3.22;;
30215;SDS011;17028;47.642;8.070;2022-09-28T22:15:30;4.00;;;2.45;;
30215;SDS011;17028;47.642;8.070;2022-09-28T22:20:31;3.63;;;2.30;;
30215;SDS011;17028;47.642;8.070;2022-09-28T22:25:32;5.28;;;3.75;;
30215;SDS011;17028;47.642;8.070;2022-09-28T22:30:33;5.63;;;4.60;;
30215;SDS011;17028;47.642;8.070;2022-09-28T22:35:34;6.07;;;4.70;;
30215;SDS011;17028;47.642;8.070;2022-09-28T22:40:35;7.50;;;5.10;;
30215;SDS011;17028;47.642;8.070;2022-09-28T22:45:37;6.45;;;4.72;;
30215;SDS011;17028;47.642;8.070;2022-09-28T22:50:45;7.07;;;5.18;;
30215;SDS011;17028;47.642;8.070;2022-09-28T22:55:48;6.13;;;4.85;;
30215;SDS011;17028;47.642;8.070;2022-09-28T23:00:49;8.25;;;5.68;;
30215;SDS011;17028;47.642;8.070;2022-09-28T23:05:50;7.75;;;5.00;;
30215;SDS011;17028;47.642;8.070;2022-09-28T23:10:55;6.70;;;4.63;;
30215;SDS011;17028;47.642;8.070;2022-09-28T23:15:57;8.65;;;5.43;;
30215;SDS011;17028;47.642;8.070;2022-09-28T23:21:00;7.32;;;5.40;;
30215;SDS011;17028;47.642;8.070;2022-09-28T23:26:16;7.40;;;5.32;;
30215;SDS011;17028;47.642;8.070;2022-09-28T23:31:24;7.57;;;5.85;;
30215;SDS011;17028;47.642;8.070;2022-09-28T23:36:27;5.57;;;4.22;;
30215;SDS011;17028;47.642;8.070;2022-09-28T23:41:28;5.13;;;3.60;;
30215;SDS011;17028;47.642;8.070;2022-09-28T23:46:29;3.67;;;2.58;;
30215;SDS011;17028;47.642;8.070;2022-09-28T23:51:31;5.38;;;3.88;;
30215;SDS011;17028;47.642;8.070;2022-09-28T23:56:32;5.80;;;4.60;;
